Time;durP1;ratioP1;P1;durP2;ratioP2;P2;SDS_P1;SDS_P2;PMS_P1;PMS_P2;Temp;Humidity;BMP_temperature;BMP_pressure;BME280_temperature;BME280_humidity;BME280_pressure;Samples;Min_cycle;Max_cycle;Signal;HPM_P1;HPM_P2
2023/10/11 00:23:38;;;;;;;8.77;5.10;;;;;;;19.94;52.54;93841.88;5402793;22;18998436;-93
2023/10/11 00:31:35;;;;;;;8.25;5.93;;;;;;;19.96;52.60;93846.88;6144439;23;20017;-93
2023/10/11 00:34:53;;;;;;;;;;;;;;;;;;;;;
2023/10/11 00:38:08;;;;;;;;;;;;;;;;;;;;;
2023/10/11 00:41:12;;;;;;;;;;;;;;;;;;;;;
2023/10/11 00:44:17;;;;;;;10.35;8.38;;;;;;;19.98;52.43;93830.63;6030939;23;20665;-94
2023/10/11 00:50:59;;;;;;;;;;;;;;;;;;;;;
2023/10/11 03:33:26;;;;;;;11.63;7.28;;;;;;;19.93;51.89;93780.03;6221729;22;20024;-93
2023/10/11 03:36:05;;;;;;;23.58;10.88;;;;;;;19.98;51.99;93775.75;6145597;23;20106;-94
2023/10/11 03:38:57;;;;;;;;;;;;;;;;;;;;;
2023/10/11 03:41:28;;;;;;;10.90;7.30;;;;;;;20.02;51.59;93776.97;6177339;23;20049;-94
2023/10/11 03:44:09;;;;;;;13.52;8.73;;;;;;;20.02;52.09;93768.72;6162367;23;20004;-90
2023/10/11 03:46:38;;;;;;;110.53;66.25;;;;;;;20.06;51.82;93766.47;6189172;23;20056;-92
2023/10/11 03:52:31;;;;;;;29.52;18.13;;;;;;;20.00;51.66;93767.75;6201998;23;20100;-92
2023/10/11 03:54:45;;;;;;;30.63;16.55;;;;;;;20.01;51.82;93761.75;6158217;23;20040;-91
2023/10/11 03:57:17;;;;;;;49.10;19.50;;;;;;;20.11;51.34;93762.19;6179054;22;20036;-94
2023/10/11 04:16:33;;;;;;;23.17;8.95;;;;;;;19.60;49.88;93755.63;6160927;23;20017;-94
2023/10/11 04:19:02;;;;;;;29.55;10.55;;;;;;;19.57;49.78;93764.88;6088922;23;20035;-92
2023/10/11 04:21:54;;;;;;;42.22;9.95;;;;;;;19.49;49.83;93756.41;6116321;23;20029;-93
2023/10/11 04:24:26;;;;;;;35.88;8.50;;;;;;;19.55;49.68;93748.91;6115216;23;20017;-91
2023/10/11 04:44:04;;;;;;;191.23;86.97;;;;;;;19.42;50.01;93768.69;6159980;23;20029;-92
2023/10/11 04:46:31;;;;;;;31.70;14.30;;;;;;;19.46;49.67;93760.94;6156628;23;20017;-92
2023/10/11 04:49:16;;;;;;;25.25;10.95;;;;;;;19.38;49.65;93761.97;6090802;23;20060;-92
2023/10/11 04:55:12;;;;;;;29.35;10.57;;;;;;;19.24;50.38;93774.03;6174398;23;20039;-91
2023/10/11 04:57:49;;;;;;;46.92;11.25;;;;;;;19.26;50.35;93768.78;6141781;23;20260;-92
2023/10/11 05:00:18;;;;;;;44.83;15.65;;;;;;;19.29;50.15;93760.28;6135967;23;20380;-92
2023/10/11 05:02:47;;;;;;;27.52;9.23;;;;;;;19.22;50.40;93768.31;6159995;23;20021;-91
2023/10/11 05:05:18;;;;;;;26.05;7.80;;;;;;;19.21;50.09;93767.56;6132073;23;20463;-92
2023/10/11 05:10:43;;;;;;;32.72;12.45;;;;;;;19.24;50.26;93771.28;6161319;23;20017;-92
2023/10/11 05:16:49;;;;;;;75.75;25.85;;;;;;;19.37;50.09;93765.97;6087967;23;20021;-91
2023/10/11 05:19:20;;;;;;;84.30;37.38;;;;;;;19.44;50.04;93774.41;6076943;23;20022;-94
2023/10/11 05:21:53;;;;;;;96.85;38.78;;;;;;;19.47;49.96;93778.88;6113892;23;20006;-93
2023/10/11 05:27:35;;;;;;;269.75;48.88;;;;;;;19.54;50.01;93783.06;6143992;23;20382;-93
2023/10/11 05:51:51;;;;;;;103.22;36.78;;;;;;;19.75;49.91;93808.09;6054709;23;20045;-92
2023/10/11 05:54:20;;;;;;;101.53;44.47;;;;;;;19.73;49.74;93805.13;6037498;23;20053;-92
2023/10/11 05:56:47;;;;;;;124.90;52.25;;;;;;;19.78;49.92;93810.59;6057644;23;20022;-91
2023/10/11 05:59:14;;;;;;;112.30;48.65;;;;;;;19.75;49.81;93816.34;6001218;23;20047;-95
2023/10/11 06:01:43;;;;;;;140.50;48.92;;;;;;;19.79;49.87;93816.81;6029443;23;20019;-92
2023/10/11 06:04:14;;;;;;;123.57;48.40;;;;;;;19.87;49.66;93822.50;6062267;23;20041;-91
2023/10/11 06:10:41;;;;;;;104.47;45.58;;;;;;;19.95;49.72;93818.69;5997504;23;20012;-92
2023/10/11 06:13:18;;;;;;;103.07;43.63;;;;;;;19.98;49.61;93814.91;5882030;23;20028;-93
2023/10/11 06:15:59;;;;;;;92.97;44.05;;;;;;;19.96;49.87;93822.16;5983508;23;20104;-92
2023/10/11 06:18:55;;;;;;;68.10;37.50;;;;;;;19.99;49.54;93823.88;5991922;23;20023;-91
2023/10/11 06:21:56;;;;;;;68.70;36.00;;;;;;;20.01;49.74;93819.38;6078623;23;20025;-92
2023/10/11 06:24:44;;;;;;;63.67;34.33;;;;;;;20.02;49.64;93829.09;6126785;23;20025;-93
2023/10/11 06:30:32;;;;;;;74.73;33.07;;;;;;;20.05;49.73;93828.09;6080224;23;20029;-93
2023/10/11 06:33:44;;;;;;;;;;;;;;;;;;;;;
2023/10/11 06:36:19;;;;;;;62.90;36.05;;;;;;;20.02;49.65;93831.84;6154982;23;20069;-93
2023/10/11 06:38:55;;;;;;;108.32;47.15;;;;;;;20.04;49.76;93834.09;6123522;23;20018;-95
2023/10/11 06:41:45;;;;;;;97.00;43.97;;;;;;;20.00;49.85;93844.59;6073242;23;20039;-93
2023/10/11 06:44:11;;;;;;;80.05;41.20;;;;;;;20.04;49.88;93836.84;6080907;23;20049;-90
2023/10/11 06:46:37;;;;;;;81.35;40.63;;;;;;;20.07;49.92;93838.56;6127546;23;20159;-95
2023/10/11 06:49:40;;;;;;;75.32;39.67;;;;;;;20.05;49.94;93843.81;6130980;23;20036;-92
2023/10/11 06:52:11;;;;;;;74.03;36.45;;;;;;;20.06;49.82;93842.56;6107974;23;20018;-93
2023/10/11 06:54:47;;;;;;;88.13;40.35;;;;;;;20.07;50.10;93844.78;6099497;23;20106;-92
2023/10/11 06:57:50;;;;;;;88.28;40.78;;;;;;;20.09;50.00;93842.28;6034051;23;20018;-93
2023/10/11 07:01:26;;;;;;;100.93;43.78;;;;;;;20.13;49.56;93851.00;6098201;23;20026;-91
2023/10/11 07:04:50;;;;;;;87.18;44.08;;;;;;;20.17;49.65;93837.72;5986044;23;20015;-95
2023/10/11 07:07:32;;;;;;;95.30;47.97;;;;;;;20.10;49.92;93851.25;5986253;23;20101;-93
2023/10/11 07:09:58;;;;;;;87.13;45.63;;;;;;;20.12;50.02;93857.72;5984408;23;20027;-92
2023/10/11 07:12:28;;;;;;;91.97;45.20;;;;;;;20.17;49.84;93856.94;6002219;23;20019;-92
2023/10/11 07:14:59;;;;;;;85.88;43.95;;;;;;;20.16;49.80;93852.69;5976638;23;20055;-91
2023/10/11 07:17:32;;;;;;;144.88;71.50;;;;;;;20.17;49.84;93847.94;5983373;23;20134;-91
2023/10/11 07:19:57;;;;;;;161.57;80.72;;;;;;;20.17;49.63;93850.69;5966118;23;20047;-91
2023/10/11 07:22:26;;;;;;;153.75;73.90;;;;;;;20.19;49.93;93842.69;6012227;23;20027;-91
2023/10/11 07:24:59;;;;;;;145.68;69.10;;;;;;;20.19;49.67;93840.69;5991984;23;20020;-93
2023/10/11 07:27:37;;;;;;;127.75;62.45;;;;;;;20.19;49.81;93842.69;6036020;23;20018;-92
2023/10/11 07:30:17;;;;;;;126.75;61.75;;;;;;;20.18;49.85;93852.91;6068368;23;20030;-93
2023/10/11 07:33:16;;;;;;;;;;;;;;;;;;;;;
2023/10/11 07:35:52;;;;;;;137.88;63.30;;;;;;;20.19;50.05;93843.44;6006332;23;20437;-93
2023/10/11 07:53:17;;;;;;;101.38;50.80;;;;;;;20.31;49.62;93849.59;6179493;23;20025;-94
2023/10/11 07:55:51;;;;;;;86.35;43.95;;;;;;;20.34;50.02;93839.59;5968395;23;20030;-92
2023/10/11 07:58:26;;;;;;;81.85;42.33;;;;;;;20.32;49.90;93851.06;5953246;23;20063;-93
2023/10/11 08:00:55;;;;;;;80.15;39.85;;;;;;;20.40;49.91;93830.03;5985111;23;20126;-93
2023/10/11 08:03:20;;;;;;;75.43;37.85;;;;;;;20.31;50.23;93835.84;5955999;23;20090;-93
2023/10/11 08:05:46;;;;;;;63.33;34.85;;;;;;;20.31;50.31;93841.34;5979698;23;20110;-93
2023/10/11 08:08:15;;;;;;;80.22;35.45;;;;;;;20.30;50.35;93833.63;5954983;23;20026;-92
2023/10/11 08:10:52;;;;;;;141.68;45.33;;;;;;;20.31;50.55;93840.59;5958000;23;20110;-94
2023/10/11 08:13:26;;;;;;;139.20;42.08;;;;;;;20.31;50.44;93835.13;6003365;23;20023;-93
2023/10/11 08:19:13;;;;;;;115.78;44.60;;;;;;;20.32;50.60;93837.34;5980540;23;20028;-94
2023/10/11 08:21:55;;;;;;;127.50;54.55;;;;;;;20.33;50.83;93830.59;5968598;24;20020;-93
2023/10/11 08:24:25;;;;;;;92.35;45.75;;;;;;;20.33;50.69;93838.09;5945390;24;20024;-92
2023/10/11 08:26:52;;;;;;;107.82;54.78;;;;;;;20.36;50.75;93832.28;5980264;24;20031;-92
2023/10/11 08:29:27;;;;;;;128.13;56.95;;;;;;;20.34;50.59;93834.09;5971102;24;20031;-91
2023/10/11 08:32:26;;;;;;;165.80;66.50;;;;;;;20.34;50.79;93840.31;5964191;23;20094;-94
2023/10/11 08:35:31;;;;;;;219.50;75.43;;;;;;;20.39;50.75;93834.03;6041496;23;20018;-92
2023/10/11 08:38:24;;;;;;;167.07;66.00;;;;;;;20.38;50.71;93827.06;6046844;23;20462;-93
2023/10/11 08:46:10;;;;;;;141.10;70.95;;;;;;;20.39;50.83;93834.03;6233393;22;20024;-91
2023/10/11 08:48:49;;;;;;;157.50;73.68;;;;;;;20.37;51.05;93827.56;6190879;23;20096;-92
2023/10/11 08:51:41;;;;;;;144.23;69.22;;;;;;;20.39;51.12;93816.81;6127358;23;20024;-92
2023/10/11 08:54:12;;;;;;;147.73;73.10;;;;;;;20.41;51.05;93826.03;6103523;23;20063;-93
2023/10/11 08:56:54;;;;;;;127.95;59.83;;;;;;;20.41;51.06;93826.03;6170639;23;20268;-94
2023/10/11 08:59:56;;;;;;;124.55;60.60;;;;;;;20.41;51.24;93825.31;6170610;23;20486;-94
2023/10/11 09:02:29;;;;;;;109.25;55.55;;;;;;;20.39;51.19;93822.31;6089140;23;20674;-95
2023/10/11 09:05:07;;;;;;;110.40;53.58;;;;;;;20.39;51.20;93820.31;6148627;23;20012;-94
2023/10/11 09:07:45;;;;;;;117.20;51.00;;;;;;;20.39;51.58;93820.31;6130752;23;20017;-94
2023/10/11 09:10:33;;;;;;;117.45;55.60;;;;;;;20.42;51.37;93821.28;6143816;23;20025;-93
2023/10/11 09:13:09;;;;;;;125.55;59.00;;;;;;;20.39;51.78;93825.81;6158279;23;20032;-94
2023/10/11 09:15:44;;;;;;;133.45;65.65;;;;;;;20.44;51.28;93819.53;6097625;23;20496;-94
2023/10/11 09:18:41;;;;;;;118.18;59.17;;;;;;;20.44;51.31;93819.53;6057190;23;20048;-95
2023/10/11 09:21:35;;;;;;;106.93;53.83;;;;;;;20.45;51.30;93814.78;6101903;23;20111;-94
2023/10/11 09:24:41;;;;;;;100.38;47.47;;;;;;;20.42;51.34;93816.56;6108568;23;20025;-92
2023/10/11 09:29:44;;;;;;;89.10;44.45;;;;;;;20.46;51.41;93821.75;6007708;23;20026;-94
2023/10/11 09:32:12;;;;;;;76.45;37.78;;;;;;;20.45;51.37;93823.00;6013634;23;20018;-93
2023/10/11 09:34:43;;;;;;;78.65;39.80;;;;;;;20.45;51.22;93826.50;6015696;23;20047;-94
2023/10/11 09:37:11;;;;;;;70.10;37.40;;;;;;;20.45;51.24;93823.75;6014679;23;20026;-92
2023/10/11 09:39:40;;;;;;;64.30;34.03;;;;;;;20.47;51.26;93813.00;6049605;23;20029;-93
2023/10/11 09:42:06;;;;;;;67.55;36.20;;;;;;;20.49;51.21;93816.00;6016900;23;20023;-94
2023/10/11 09:44:39;;;;;;;70.10;34.22;;;;;;;20.48;51.32;93817.25;6016839;23;20025;-94
2023/10/11 09:47:06;;;;;;;84.90;45.70;;;;;;;20.51;51.06;93816.22;6003347;23;20023;-94
2023/10/11 09:49:41;;;;;;;84.72;44.80;;;;;;;20.51;51.21;93812.72;6016937;23;20035;-93
2023/10/11 09:52:10;;;;;;;132.07;50.55;;;;;;;20.50;51.28;93816.72;6014911;23;20026;-94
2023/10/11 09:54:37;;;;;;;210.65;63.75;;;;;;;20.53;51.08;93807.47;6012235;23;20030;-92
2023/10/11 09:57:21;;;;;;;186.90;81.25;;;;;;;20.56;51.30;93814.69;5990130;23;20113;-91
2023/10/11 09:59:59;;;;;;;159.98;69.13;;;;;;;20.59;51.22;93816.38;6083693;23;20618;-92
2023/10/11 10:02:35;;;;;;;154.80;65.00;;;;;;;20.54;51.58;93817.19;6044912;23;20039;-92
2023/10/11 10:05:06;;;;;;;159.65;64.88;;;;;;;20.56;51.49;93811.19;6124499;23;20017;-92
2023/10/11 10:07:42;;;;;;;106.97;52.10;;;;;;;20.56;51.83;93820.19;6118519;23;20527;-95
2023/10/11 10:10:11;;;;;;;126.53;52.28;;;;;;;20.58;51.65;93816.88;6130576;23;20445;-92
2023/10/11 10:12:59;;;;;;;95.18;49.55;;;;;;;20.57;51.63;93813.41;6129010;23;20464;-93
2023/10/11 10:15:32;;;;;;;83.07;46.65;;;;;;;20.63;51.61;93819.59;6127778;23;20443;-92
2023/10/11 10:18:00;;;;;;;85.88;43.08;;;;;;;20.63;51.40;93811.34;6100838;23;20032;-93
2023/10/11 10:20:34;;;;;;;85.40;44.40;;;;;;;20.57;51.89;93807.19;6139648;23;20194;-93
2023/10/11 10:23:15;;;;;;;87.20;42.60;;;;;;;20.57;51.68;93810.66;6126880;23;20866;-92
2023/10/11 10:25:48;;;;;;;90.53;42.72;;;;;;;20.55;51.82;93802.22;6152761;23;20144;-92
2023/10/11 10:28:45;;;;;;;81.45;43.15;;;;;;;20.59;51.80;93812.88;6128817;23;20032;-93
2023/10/11 10:31:21;;;;;;;83.28;42.00;;;;;;;20.57;51.88;93801.69;6151235;23;20024;-93
2023/10/11 10:33:49;;;;;;;79.07;41.78;;;;;;;20.59;51.83;93802.63;6116550;23;20372;-93
2023/10/11 10:36:20;;;;;;;104.78;44.08;;;;;;;20.58;52.07;93809.38;6113243;23;20032;-93
2023/10/11 10:38:58;;;;;;;77.30;39.05;;;;;;;20.57;52.06;93807.19;6128820;23;20048;-92
2023/10/11 10:41:29;;;;;;;80.28;38.95;;;;;;;20.58;52.04;93803.91;6121424;23;20018;-92
2023/10/11 10:44:05;;;;;;;72.82;34.35;;;;;;;20.58;51.92;93792.16;6117153;23;20048;-93
2023/10/11 10:46:33;;;;;;;66.78;34.30;;;;;;;20.58;52.35;93792.91;6138444;23;20013;-93
2023/10/11 10:49:03;;;;;;;59.58;31.10;;;;;;;20.62;52.32;93795.38;6129780;23;20063;-94
2023/10/11 10:51:35;;;;;;;57.78;30.92;;;;;;;20.63;52.24;93796.88;6079679;23;20021;-95
2023/10/11 10:54:06;;;;;;;52.80;28.58;;;;;;;20.62;52.05;93790.63;6127652;23;20014;-93
2023/10/11 10:56:32;;;;;;;61.08;31.15;;;;;;;20.64;52.40;93790.09;6127818;23;20018;-92
2023/10/11 10:59:08;;;;;;;54.55;30.27;;;;;;;20.66;52.22;93779.34;6105262;23;20025;-94
2023/10/11 11:01:34;;;;;;;58.65;30.92;;;;;;;20.63;52.28;93781.13;6059003;23;20093;-94
2023/10/11 11:04:07;;;;;;;62.38;33.72;;;;;;;20.62;52.37;93774.16;6131419;23;20055;-93
2023/10/11 11:06:46;;;;;;;62.35;32.90;;;;;;;20.65;52.18;93777.88;6132232;23;20021;-94
2023/10/11 11:09:19;;;;;;;66.18;34.67;;;;;;;20.69;52.26;93781.06;6129313;23;20032;-93
2023/10/11 11:11:55;;;;;;;69.57;36.90;;;;;;;20.66;52.26;93782.09;6132949;23;20025;-94
2023/10/11 11:14:25;;;;;;;80.88;38.00;;;;;;;20.67;52.52;93767.84;6107156;23;20041;-93
2023/10/11 11:16:58;;;;;;;89.60;40.20;;;;;;;20.68;52.06;93768.59;6096420;23;20322;-93
2023/10/11 11:19:26;;;;;;;82.43;37.80;;;;;;;20.69;52.21;93759.84;6080934;23;20037;-94
2023/10/11 11:22:15;;;;;;;70.47;35.08;;;;;;;20.71;52.33;93759.31;6079196;23;20022;-93
2023/10/11 11:24:42;;;;;;;77.72;36.38;;;;;;;20.70;52.35;93746.84;6081797;23;20021;-91
2023/10/11 11:27:18;;;;;;;92.93;44.33;;;;;;;20.67;52.46;93751.38;6128387;23;20083;-94
2023/10/11 11:29:47;;;;;;;92.07;51.47;;;;;;;20.72;52.30;93753.31;6112593;23;20040;-92
2023/10/11 11:32:16;;;;;;;93.35;49.38;;;;;;;20.70;52.60;93750.34;6079117;23;20017;-93
2023/10/11 11:35:09;;;;;;;94.03;45.92;;;;;;;20.73;52.78;93748.56;6070961;23;20020;-93
2023/10/11 11:37:38;;;;;;;91.30;50.78;;;;;;;20.73;52.32;93754.06;6120390;23;20472;-93
2023/10/11 11:40:19;;;;;;;90.70;48.30;;;;;;;20.71;52.37;93759.31;6133108;23;20013;-94
2023/10/11 11:42:48;;;;;;;93.85;46.95;;;;;;;20.70;52.22;93755.84;6137906;23;20017;-95
2023/10/11 11:45:14;;;;;;;87.68;42.28;;;;;;;20.74;52.41;93750.03;6107191;23;20381;-95
2023/10/11 11:47:40;;;;;;;75.30;39.33;;;;;;;20.75;52.22;93751.53;6130204;23;20029;-94
2023/10/11 11:53:18;;;;;;;67.13;34.72;;;;;;;20.72;52.36;93752.56;6017190;23;20030;-95
2023/10/11 11:55:53;;;;;;;69.38;34.88;;;;;;;20.72;52.33;93753.31;6049343;23;20021;-95
2023/10/11 11:58:19;;;;;;;69.20;36.67;;;;;;;20.75;52.48;93749.53;6048064;23;20516;-94
2023/10/11 12:01:08;;;;;;;83.13;37.92;;;;;;;20.74;52.14;93739.81;6064122;23;20029;-92
2023/10/11 12:03:36;;;;;;;46.83;25.75;;;;;;;20.83;51.74;93746.91;6069813;23;20022;-94
2023/10/11 12:06:02;;;;;;;42.95;18.85;;;;;;;20.83;51.72;93744.91;6065746;23;20034;-92
2023/10/11 12:08:31;;;;;;;30.48;15.15;;;;;;;20.75;51.76;93737.78;6064608;23;20022;-95
2023/10/11 12:11:02;;;;;;;23.38;12.65;;;;;;;20.74;52.21;93748.03;6070257;23;20434;-94
2023/10/11 12:13:28;;;;;;;28.10;12.45;;;;;;;20.70;52.53;93738.59;6065265;23;20057;-93
2023/10/11 12:15:56;;;;;;;19.67;9.40;;;;;;;20.70;52.00;93733.09;6071786;23;20024;-93
2023/10/11 12:18:33;;;;;;;26.95;10.35;;;;;;;20.69;51.80;93743.34;6068512;23;20022;-94
2023/10/11 12:21:10;;;;;;;24.48;8.90;;;;;;;20.67;51.61;93743.13;6070871;23;20022;-92
2023/10/11 12:23:42;;;;;;;26.20;10.20;;;;;;;20.66;51.91;93730.66;6060497;23;20417;-93
2023/10/11 12:26:09;;;;;;;21.80;8.35;;;;;;;20.71;52.04;93732.59;6060104;23;20037;-93
2023/10/11 12:28:37;;;;;;;48.53;17.58;;;;;;;20.67;51.78;93732.13;6092311;23;20025;-94
2023/10/11 12:31:03;;;;;;;90.15;36.58;;;;;;;20.63;51.54;93733.69;6129639;23;20036;-92
2023/10/11 12:33:30;;;;;;;77.93;31.88;;;;;;;20.57;51.62;93730.28;6105351;23;20025;-91
2023/10/11 12:35:57;;;;;;;53.40;23.98;;;;;;;20.64;51.45;93732.41;6135154;23;20426;-89
2023/10/11 12:38:39;;;;;;;43.28;20.70;;;;;;;20.65;51.79;93722.94;6074037;23;20749;-92
2023/10/11 12:41:07;;;;;;;32.40;14.13;;;;;;;20.66;51.47;93721.66;6113967;23;20017;-95
2023/10/11 12:44:26;;;;;;;25.33;10.63;;;;;;;20.58;50.42;93724.25;6091156;23;20137;-96
2023/10/11 12:47:20;;;;;;;17.85;7.13;;;;;;;20.54;50.65;93726.56;6063612;23;20079;-96
2023/10/11 12:50:39;;;;;;;18.85;6.90;;;;;;;20.58;50.88;93729.75;6112174;23;20453;-96
2023/10/11 12:53:10;;;;;;;18.80;5.60;;;;;;;20.66;50.46;93729.91;6154283;23;20027;-94
2023/10/11 12:56:19;;;;;;;25.50;6.88;;;;;;;20.59;50.97;93722.97;6126661;23;20025;-95
2023/10/11 13:01:36;;;;;;;33.72;15.43;;;;;;;20.59;51.96;93720.22;6138318;23;20399;-94
2023/10/11 13:04:08;;;;;;;57.95;29.35;;;;;;;20.54;52.23;93718.31;6073190;23;20033;-93
2023/10/11 13:06:36;;;;;;;96.15;39.75;;;;;;;20.54;52.29;93715.56;6072569;23;20723;-93
2023/10/11 13:09:04;;;;;;;76.30;33.38;;;;;;;20.61;51.77;93714.22;6074032;23;20021;-90
2023/10/11 13:11:32;;;;;;;99.78;45.53;;;;;;;20.59;52.46;93708.50;6076831;23;20018;-92
2023/10/11 13:14:05;;;;;;;87.30;37.08;;;;;;;20.62;52.10;93710.22;6081466;23;20014;-94
2023/10/11 13:16:40;;;;;;;104.72;48.03;;;;;;;20.63;51.13;93712.44;6123723;23;20505;-92
2023/10/11 13:19:17;;;;;;;104.00;41.15;;;;;;;20.63;50.99;93706.22;6062773;23;20096;-95
2023/10/11 13:21:47;;;;;;;94.63;41.38;;;;;;;20.59;50.87;93700.25;6051765;23;20044;-95
2023/10/11 13:24:21;;;;;;;87.93;36.42;;;;;;;20.61;51.11;93698.50;6080523;23;20041;-94
2023/10/11 13:26:47;;;;;;;64.80;29.00;;;;;;;20.63;51.01;93698.72;6096226;23;20049;-92
2023/10/11 13:29:24;;;;;;;116.78;48.13;;;;;;;20.64;51.23;93705.69;6029524;23;20013;-94
2023/10/11 13:31:53;;;;;;;100.18;42.20;;;;;;;20.66;51.15;93703.19;6100573;23;20017;-93
2023/10/11 13:34:58;;;;;;;70.22;32.10;;;;;;;20.70;50.96;93711.88;6094420;23;20021;-94
2023/10/11 13:37:46;;;;;;;58.60;26.80;;;;;;;20.67;51.23;93710.16;6116791;23;20017;-93
2023/10/11 13:40:16;;;;;;;64.65;22.00;;;;;;;20.73;51.20;93705.34;6014227;23;20151;-94
2023/10/11 13:42:43;;;;;;;35.95;15.52;;;;;;;20.73;50.75;93701.84;6118938;23;20017;-93
2023/10/11 13:45:16;;;;;;;29.95;11.55;;;;;;;20.68;50.90;93700.66;6126078;23;20030;-92
2023/10/11 13:47:42;;;;;;;21.08;8.88;;;;;;;20.74;50.94;93698.59;6169168;23;20591;-94
2023/10/11 13:50:41;;;;;;;24.38;7.63;;;;;;;20.68;50.81;93700.66;6193416;23;20031;-93
2023/10/11 13:53:00;;;;;;;32.03;9.38;;;;;;;20.71;50.45;93699.63;6192097;23;20048;-93
2023/10/11 13:55:26;;;;;;;16.27;6.07;;;;;;;20.69;50.78;93702.16;6192661;23;20464;-93
2023/10/11 13:57:52;;;;;;;203.73;40.10;;;;;;;20.80;50.92;93691.00;6194223;23;20021;-94
2023/10/11 14:05:44;;;;;;;40.42;20.75;;;;;;;20.75;49.37;93669.84;6161206;23;20017;-92
2023/10/11 14:08:24;;;;;;;33.33;16.13;;;;;;;20.80;49.46;93662.78;6173995;23;20024;-93
2023/10/11 14:11:05;;;;;;;32.75;12.13;;;;;;;20.76;49.07;93665.09;6146120;23;20012;-94
2023/10/11 14:13:33;;;;;;;29.90;10.77;;;;;;;20.71;48.84;93658.41;6157668;23;20024;-92
2023/10/11 14:16:50;;;;;;;53.17;36.35;;;;;;;20.72;49.26;93659.16;6189477;23;20048;-95
2023/10/11 14:19:19;;;;;;;174.65;91.53;;;;;;;20.73;49.41;93664.13;6072281;23;20022;-95
2023/10/11 14:21:51;;;;;;;200.25;79.07;;;;;;;20.75;49.11;93666.38;6081025;23;20034;-94
2023/10/11 14:24:17;;;;;;;71.60;26.05;;;;;;;20.72;49.08;93656.41;6073280;23;20081;-92
2023/10/11 14:26:44;;;;;;;40.50;15.00;;;;;;;20.75;48.80;93660.88;6101434;23;20026;-94
2023/10/11 14:29:09;;;;;;;34.08;10.18;;;;;;;20.78;48.02;93655.09;6127803;23;20483;-93
2023/10/11 14:31:42;;;;;;;26.63;6.70;;;;;;;20.75;47.89;93647.88;6110938;23;20024;-93
2023/10/11 14:34:21;;;;;;;13.27;5.50;;;;;;;20.74;47.58;93646.38;6082576;23;20085;-95
2023/10/11 14:36:54;;;;;;;22.38;5.00;;;;;;;20.69;47.24;93644.44;6065565;23;20017;-94
2023/10/11 14:39:22;;;;;;;13.50;4.63;;;;;;;20.69;47.18;93643.72;6076048;23;20021;-92
2023/10/11 14:41:50;;;;;;;13.68;4.25;;;;;;;20.68;47.38;93645.72;6101147;23;20017;-91
2023/10/11 14:44:17;;;;;;;12.20;4.63;;;;;;;20.64;47.79;93644.53;6126309;23;20017;-92
2023/10/11 14:46:44;;;;;;;12.57;3.20;;;;;;;20.68;47.92;93642.22;6105371;23;20136;-93
2023/10/11 14:49:11;;;;;;;15.32;4.30;;;;;;;20.68;47.57;93644.97;6096784;23;20105;-91
2023/10/11 14:51:37;;;;;;;13.73;4.05;;;;;;;20.67;47.39;93636.00;6115041;23;20020;-95
2023/10/11 14:54:03;;;;;;;7.57;3.58;;;;;;;20.67;47.41;93638.00;6102488;23;20042;-93
2023/10/11 14:56:30;;;;;;;18.25;4.57;;;;;;;20.68;46.70;93631.25;6077047;23;20011;-93
2023/10/11 14:59:03;;;;;;;12.27;3.80;;;;;;;20.67;46.51;93632.50;6041948;23;20022;-94
2023/10/11 15:01:48;;;;;;;8.77;3.28;;;;;;;20.61;46.70;93635.31;6086081;23;20021;-93
2023/10/11 15:06:49;;;;;;;17.20;3.90;;;;;;;20.59;46.53;93629.59;6139861;23;20330;-92
2023/10/11 15:09:34;;;;;;;14.43;3.25;;;;;;;20.59;46.91;93635.09;6101528;23;20068;-92
2023/10/11 15:12:20;;;;;;;12.18;3.67;;;;;;;20.64;47.04;93633.53;6100811;23;20044;-92
2023/10/11 15:14:56;;;;;;;13.05;3.47;;;;;;;20.66;46.89;93637.25;6023857;23;20116;-92
2023/10/11 15:21:42;;;;;;;10.55;4.07;;;;;;;20.73;47.02;93635.91;5942073;24;20012;-96
2023/10/11 15:24:19;;;;;;;25.50;3.75;;;;;;;20.73;47.36;93633.19;5978785;23;20025;-92
2023/10/11 15:26:45;;;;;;;10.10;4.40;;;;;;;20.75;47.04;93634.13;6090838;23;20021;-93
2023/10/11 15:29:11;;;;;;;8.68;3.38;;;;;;;20.79;46.94;93642.06;6070271;23;20100;-92
2023/10/11 15:31:38;;;;;;;12.30;3.53;;;;;;;20.75;47.27;93627.91;6058473;23;20014;-92
2023/10/11 15:34:07;;;;;;;13.93;3.75;;;;;;;20.76;46.88;93632.88;6067743;23;20105;-91
2023/10/11 15:36:33;;;;;;;7.57;3.65;;;;;;;20.78;47.06;93640.59;6059518;23;20385;-91
2023/10/11 15:38:59;;;;;;;13.05;3.67;;;;;;;20.82;46.97;93644.50;6065110;23;20420;-91
2023/10/11 15:41:24;;;;;;;10.98;3.70;;;;;;;20.83;46.91;93645.25;6113197;23;20056;-91
2023/10/11 15:43:50;;;;;;;10.68;3.40;;;;;;;20.82;46.97;93646.53;6069601;23;20366;-92
2023/10/11 15:46:21;;;;;;;9.23;3.60;;;;;;;20.84;46.91;93641.25;6118842;23;20013;-92
2023/10/11 15:48:49;;;;;;;9.45;3.92;;;;;;;20.84;47.12;93641.25;6064314;23;20030;-92
2023/10/11 15:51:18;;;;;;;7.03;3.60;;;;;;;20.82;46.71;93644.50;6071562;23;20018;-89
2023/10/11 15:53:45;;;;;;;7.13;2.90;;;;;;;20.85;47.16;93640.72;6119861;23;20033;-92
2023/10/11 15:56:14;;;;;;;15.68;3.80;;;;;;;20.86;46.97;93639.47;6065860;23;20582;-90
2023/10/11 15:58:40;;;;;;;81.10;18.67;;;;;;;20.87;47.54;93640.22;6070895;23;20049;-91
2023/10/11 16:01:06;;;;;;;24.63;7.03;;;;;;;20.81;47.41;93637.53;6093566;23;20034;-90
2023/10/11 16:03:43;;;;;;;14.98;4.60;;;;;;;20.82;47.22;93641.03;6090114;23;20026;-91
2023/10/11 16:06:09;;;;;;;16.92;5.03;;;;;;;20.79;47.38;93645.56;6096550;23;20093;-90
2023/10/11 16:08:35;;;;;;;12.65;4.20;;;;;;;20.77;47.64;93644.63;6118587;23;20029;-91
2023/10/11 16:11:09;;;;;;;8.43;4.43;;;;;;;20.78;47.34;93643.34;6114711;23;20241;-91
2023/10/11 16:13:35;;;;;;;10.30;4.30;;;;;;;20.78;47.33;93641.34;6093800;23;20026;-91
2023/10/11 16:16:04;;;;;;;12.82;5.53;;;;;;;20.78;47.57;93649.59;6070681;23;20018;-91
2023/10/11 16:18:32;;;;;;;13.73;4.53;;;;;;;20.77;47.50;93652.84;6066163;23;20441;-92
2023/10/11 16:21:02;;;;;;;9.32;4.35;;;;;;;20.74;47.54;93656.63;6071956;23;20487;-91
2023/10/11 16:23:29;;;;;;;13.85;4.97;;;;;;;20.75;47.58;93655.38;6078728;23;20324;-90
2023/10/11 16:25:58;;;;;;;7.35;4.55;;;;;;;20.74;47.50;93653.88;6099274;23;20104;-92
2023/10/11 16:28:25;;;;;;;13.32;4.50;;;;;;;20.73;47.62;93655.91;6103271;23;20013;-89
2023/10/11 16:30:55;;;;;;;10.07;4.15;;;;;;;20.75;47.78;93655.38;6078694;23;20064;-92
2023/10/11 16:33:23;;;;;;;16.85;4.60;;;;;;;20.75;47.39;93652.63;6099485;23;20029;-91
2023/10/11 16:35:51;;;;;;;7.40;4.22;;;;;;;20.74;47.98;93651.88;6078382;23;20444;-92
2023/10/11 16:38:18;;;;;;;8.35;3.95;;;;;;;20.76;47.80;93648.63;6102359;23;20024;-90
2023/10/11 16:40:45;;;;;;;10.57;4.88;;;;;;;20.73;47.91;93650.41;6070114;23;20029;-91
2023/10/11 16:43:12;;;;;;;8.23;4.32;;;;;;;20.72;47.85;93650.91;6073067;23;20049;-89
2023/10/11 16:45:41;;;;;;;12.13;4.40;;;;;;;20.71;48.13;93657.69;6050240;23;20388;-90
2023/10/11 16:48:12;;;;;;;6.35;3.90;;;;;;;20.72;47.94;93656.41;6045446;23;20018;-92
2023/10/11 16:50:38;;;;;;;10.75;4.05;;;;;;;20.70;47.84;93665.19;6097761;23;20025;-90
2023/10/11 16:53:05;;;;;;;8.35;4.15;;;;;;;20.69;47.95;93668.44;6048286;23;20465;-92
2023/10/11 16:55:32;;;;;;;9.38;4.65;;;;;;;20.69;48.01;93658.19;6068874;23;20029;-91
2023/10/11 16:57:57;;;;;;;9.57;3.55;;;;;;;20.69;47.93;93660.94;6071618;23;20029;-91
2023/10/11 17:00:23;;;;;;;8.27;4.32;;;;;;;20.68;48.02;93655.97;6046595;23;20021;-92
2023/10/11 17:02:49;;;;;;;7.03;4.10;;;;;;;20.66;48.24;93659.22;6044945;23;20025;-91
2023/10/11 17:05:14;;;;;;;9.63;4.15;;;;;;;20.67;48.09;93673.72;6047301;23;20042;-93
2023/10/11 17:07:40;;;;;;;5.95;4.10;;;;;;;20.66;48.08;93674.97;6048133;23;20025;-93
2023/10/11 17:10:06;;;;;;;7.07;3.75;;;;;;;20.65;48.17;93674.22;6043799;23;20049;-92
2023/10/11 17:12:34;;;;;;;7.45;4.22;;;;;;;20.65;48.31;93676.97;6070704;23;20045;-91
2023/10/11 17:15:00;;;;;;;8.35;4.88;;;;;;;20.66;48.37;93674.97;6072496;23;20105;-91
2023/10/11 17:17:25;;;;;;;8.57;4.00;;;;;;;20.65;48.43;93670.72;6043430;23;20022;-92